Battle Ground, Washington
Current Conditions -  °F | °C
As of 10:23 AM on Sunday 25 Jan 2015 (Local Time) from KVUO Reporting Station
Haze Haze  
Wind Chill: 46°   Ceiling: 200
Heat Index: 46°   Visibility: 1mi
Dew Point: 46°   Wind: 0mph
Humidity: 100%   Direction: NA
Pressure: 30.17"   Gusts: NA
Location:  45.78°N, 122.53°W
Report Text: KVUO 251823Z AUTO 00000KT 1SM BR VV002 08/08 A3017 RMK AO2 T00780078
Loading
Personal Weather Stations






























Interactive Weather Map New forecast layout! Learn more

10-Day Weather Forecast

Advertisements
Track Severe Weather on mobile